createdAt,value
2017-09-25T00:01:11.918Z,5.33
2017-09-25T00:03:14.353Z,5.23
2017-09-25T00:05:16.948Z,5.00
2017-09-25T00:07:19.390Z,4.83
2017-09-25T00:09:21.816Z,4.97
2017-09-25T00:11:24.272Z,5.63
2017-09-25T00:13:26.713Z,5.07
2017-09-25T00:15:29.244Z,5.60
2017-09-25T00:17:31.707Z,4.97
2017-09-25T00:19:34.171Z,5.00
2017-09-25T00:21:36.616Z,5.23
2017-09-25T00:23:39.076Z,4.87
2017-09-25T00:25:41.513Z,5.47
2017-09-25T00:27:43.984Z,4.90
2017-09-25T00:29:46.558Z,5.47
2017-09-25T00:31:49.002Z,5.30
2017-09-25T00:33:51.534Z,5.30
2017-09-25T00:35:54.067Z,4.70
2017-09-25T00:37:56.642Z,4.73
2017-09-25T00:39:59.210Z,4.80
2017-09-25T00:42:01.675Z,5.60
2017-09-25T00:44:04.111Z,4.97
2017-09-25T00:46:06.622Z,4.83
2017-09-25T00:48:09.085Z,4.70
2017-09-25T00:50:11.662Z,6.60
2017-09-25T00:52:20.107Z,5.10
2017-09-25T00:54:23.502Z,5.00
2017-09-25T00:56:25.963Z,4.63
2017-09-25T00:58:28.404Z,4.87
2017-09-25T01:00:42.790Z,4.40
2017-09-25T01:02:45.274Z,5.13
2017-09-25T01:04:59.609Z,4.60
2017-09-25T01:07:02.069Z,4.03
2017-09-25T01:09:04.617Z,5.30
2017-09-25T01:11:07.043Z,4.90
2017-09-25T01:13:10.578Z,5.27
2017-09-25T01:15:13.008Z,4.33
2017-09-25T01:17:15.445Z,4.53
2017-09-25T01:19:17.941Z,4.97
2017-09-25T01:21:20.373Z,5.23
2017-09-25T01:23:22.895Z,4.70
2017-09-25T01:25:25.401Z,4.90
2017-09-25T01:27:27.911Z,4.70
2017-09-25T01:29:30.407Z,4.80
2017-09-25T01:31:32.916Z,4.63
2017-09-25T01:33:35.421Z,4.77
2017-09-25T01:35:37.913Z,4.70
2017-09-25T01:37:40.373Z,5.10
2017-09-25T01:39:42.819Z,5.20
2017-09-25T01:41:45.367Z,4.60
2017-09-25T01:43:47.891Z,4.80
2017-09-25T01:45:50.417Z,4.73
2017-09-25T01:47:52.849Z,4.70
2017-09-25T01:49:55.399Z,4.40
2017-09-25T01:51:57.861Z,4.47
2017-09-25T01:54:00.340Z,4.00
2017-09-25T01:56:02.800Z,4.17
2017-09-25T01:58:05.259Z,4.57
2017-09-25T02:00:07.692Z,5.20
2017-09-25T02:02:10.166Z,4.60
2017-09-25T02:04:12.621Z,4.30
2017-09-25T02:06:15.083Z,5.70
2017-09-25T02:08:17.579Z,4.87
2017-09-25T02:10:20.022Z,5.10
2017-09-25T02:12:22.459Z,4.60
2017-09-25T02:14:24.923Z,5.07
2017-09-25T02:16:27.365Z,5.13
2017-09-25T02:18:29.832Z,4.47
2017-09-25T02:20:32.301Z,4.57
2017-09-25T02:22:34.768Z,4.63
2017-09-25T02:24:37.375Z,4.77
2017-09-25T02:26:39.841Z,4.80
2017-09-25T02:28:42.280Z,4.50
2017-09-25T02:30:44.751Z,4.03
2017-09-25T02:32:47.201Z,4.60
2017-09-25T02:34:49.738Z,5.43
2017-09-25T02:36:52.286Z,4.33
2017-09-25T02:38:54.765Z,4.70
2017-09-25T02:40:57.209Z,4.50
2017-09-25T02:42:59.653Z,4.47
2017-09-25T02:45:02.216Z,4.60
2017-09-25T02:47:04.657Z,4.00
2017-09-25T02:49:07.149Z,4.77
2017-09-25T02:51:09.617Z,4.40
2017-09-25T02:53:12.128Z,4.60
2017-09-25T02:55:14.621Z,3.83
2017-09-25T02:57:17.171Z,4.37
2017-09-25T02:59:19.748Z,4.00
2017-09-25T03:01:22.263Z,4.67
2017-09-25T03:03:24.747Z,4.77
2017-09-25T03:05:27.226Z,4.30
2017-09-25T03:07:29.665Z,4.23
2017-09-25T03:09:32.124Z,4.67
2017-09-25T03:11:34.770Z,4.30
2017-09-25T03:13:37.254Z,4.70
2017-09-25T03:15:39.792Z,4.40
2017-09-25T03:17:42.390Z,4.60
2017-09-25T03:19:44.915Z,4.03
2017-09-25T03:21:47.429Z,4.90
2017-09-25T03:23:49.904Z,3.67
2017-09-25T03:25:52.483Z,4.13
2017-09-25T03:27:54.956Z,4.20
2017-09-25T03:29:57.410Z,4.37
2017-09-25T03:31:59.917Z,4.33
2017-09-25T03:34:02.389Z,3.87
2017-09-25T03:36:04.827Z,4.20
2017-09-25T03:38:07.416Z,3.97
2017-09-25T03:40:09.969Z,4.63
2017-09-25T03:42:12.505Z,4.53
2017-09-25T03:44:15.046Z,4.30
2017-09-25T03:46:17.525Z,4.43
2017-09-25T03:48:20.058Z,4.03
2017-09-25T03:50:22.523Z,4.20
2017-09-25T03:52:25.223Z,3.97
2017-09-25T03:54:27.770Z,3.77
2017-09-25T03:56:30.313Z,3.63
2017-09-25T03:58:32.793Z,3.40
2017-09-25T04:00:35.233Z,3.87
2017-09-25T04:02:37.664Z,3.90
2017-09-25T04:04:40.144Z,3.67
2017-09-25T04:06:42.702Z,4.07
2017-09-25T04:08:45.266Z,4.10
2017-09-25T04:10:47.757Z,4.30
2017-09-25T04:12:50.212Z,4.13
2017-09-25T04:14:52.676Z,4.57
2017-09-25T04:16:55.251Z,3.90
2017-09-25T04:18:57.684Z,3.77
2017-09-25T04:21:00.148Z,4.60
2017-09-25T04:23:02.662Z,4.13
2017-09-25T04:25:05.135Z,4.13
2017-09-25T04:27:07.640Z,4.50
2017-09-25T04:29:10.097Z,4.30
2017-09-25T04:31:12.578Z,4.20
2017-09-25T04:33:15.045Z,4.03
2017-09-25T04:35:17.583Z,3.90
2017-09-25T04:37:20.139Z,4.53
2017-09-25T04:39:22.745Z,3.90
2017-09-25T04:41:25.275Z,4.13
2017-09-25T04:43:27.741Z,4.23
2017-09-25T04:45:30.212Z,4.43
2017-09-25T04:47:32.697Z,4.20
2017-09-25T04:49:35.139Z,3.50
2017-09-25T04:51:37.650Z,3.87
2017-09-25T04:53:40.140Z,4.40
2017-09-25T04:55:42.695Z,4.30
2017-09-25T04:57:45.154Z,3.83
2017-09-25T04:59:47.713Z,4.30
2017-09-25T05:01:50.255Z,3.73
2017-09-25T05:03:52.709Z,3.37
2017-09-25T05:05:55.170Z,3.90
2017-09-25T05:07:57.620Z,3.90
2017-09-25T05:10:00.159Z,3.90
2017-09-25T05:12:02.662Z,4.40
2017-09-25T05:14:05.130Z,4.00
2017-09-25T05:16:07.704Z,3.57
2017-09-25T05:18:10.181Z,4.40
2017-09-25T05:20:12.649Z,3.70
2017-09-25T05:22:15.117Z,4.20
2017-09-25T05:24:17.578Z,4.43
2017-09-25T05:26:20.068Z,4.03
2017-09-25T05:28:22.522Z,3.87
2017-09-25T05:30:25.006Z,3.80
2017-09-25T05:32:27.446Z,4.00
2017-09-25T05:34:29.925Z,3.57
2017-09-25T05:36:32.397Z,4.10
2017-09-25T05:38:34.900Z,3.80
2017-09-25T05:40:37.467Z,3.40
2017-09-25T05:42:39.963Z,3.73
2017-09-25T05:44:42.490Z,4.17
2017-09-25T05:46:44.972Z,3.63
2017-09-25T05:48:47.444Z,4.17
2017-09-25T05:50:49.984Z,3.70
2017-09-25T05:52:52.474Z,4.13
2017-09-25T05:54:54.959Z,3.50
2017-09-25T05:56:57.460Z,4.03
2017-09-25T05:58:59.897Z,3.97
2017-09-25T06:01:02.386Z,3.63
2017-09-25T06:03:04.831Z,4.40
2017-09-25T06:05:07.313Z,3.80
2017-09-25T06:07:09.822Z,4.30
2017-09-25T06:09:12.350Z,4.00
2017-09-25T06:11:14.797Z,3.73
2017-09-25T06:13:17.385Z,4.40
2017-09-25T06:15:19.821Z,4.27
2017-09-25T06:17:22.320Z,3.83
2017-09-25T06:19:24.798Z,3.73
2017-09-25T06:21:27.373Z,3.97
2017-09-25T06:23:29.929Z,4.40
2017-09-25T06:25:32.408Z,3.43
2017-09-25T06:27:34.959Z,3.67
2017-09-25T06:29:37.450Z,3.70
2017-09-25T06:31:39.920Z,3.70
2017-09-25T06:33:42.456Z,3.63
2017-09-25T06:35:44.890Z,4.33
2017-09-25T06:37:47.355Z,4.50
2017-09-25T06:39:49.802Z,4.10
2017-09-25T06:41:52.425Z,5.40
2017-09-25T06:43:54.879Z,4.20
2017-09-25T06:45:57.345Z,4.20
2017-09-25T06:47:59.816Z,3.60
2017-09-25T06:50:02.331Z,4.30
2017-09-25T06:52:04.829Z,3.63
2017-09-25T06:54:07.317Z,3.90
2017-09-25T06:56:09.804Z,4.30
2017-09-25T06:58:12.340Z,3.50
2017-09-25T07:00:14.800Z,3.67
2017-09-25T07:02:17.264Z,4.50
2017-09-25T07:04:19.829Z,4.20
2017-09-25T07:06:22.296Z,4.27
2017-09-25T07:08:24.894Z,4.27
2017-09-25T07:10:27.358Z,4.33
2017-09-25T07:12:29.811Z,3.80
2017-09-25T07:14:32.297Z,4.20
2017-09-25T07:16:34.775Z,4.40
2017-09-25T07:18:37.224Z,4.93
2017-09-25T07:20:39.714Z,3.90
2017-09-25T07:22:42.237Z,3.77
2017-09-25T07:24:44.684Z,3.60
2017-09-25T07:26:47.229Z,4.03
2017-09-25T07:28:49.846Z,4.17
2017-09-25T07:30:52.436Z,4.30
2017-09-25T07:32:55.006Z,3.80
2017-09-25T07:34:57.520Z,3.83
2017-09-25T07:37:00.017Z,4.30
2017-09-25T07:39:02.768Z,4.40
2017-09-25T07:41:05.241Z,3.90
2017-09-25T07:43:07.916Z,3.70
2017-09-25T07:45:10.459Z,3.60
2017-09-25T07:47:12.916Z,3.90
2017-09-25T07:49:15.425Z,4.20
2017-09-25T07:51:17.895Z,3.80
2017-09-25T07:53:20.405Z,4.13
2017-09-25T07:55:22.882Z,4.20
2017-09-25T07:57:25.359Z,3.80
2017-09-25T07:59:27.858Z,3.77
2017-09-25T08:01:30.323Z,4.20
2017-09-25T08:03:32.781Z,4.27
2017-09-25T08:05:35.270Z,3.80
2017-09-25T08:07:37.724Z,4.13
2017-09-25T08:09:40.205Z,3.97
2017-09-25T08:11:42.716Z,3.37
2017-09-25T08:13:45.181Z,4.30
2017-09-25T08:15:47.820Z,3.93
2017-09-25T08:17:50.292Z,3.87
2017-09-25T08:19:52.733Z,3.60
2017-09-25T08:21:55.184Z,4.40
2017-09-25T08:23:57.621Z,3.70
2017-09-25T08:26:00.072Z,3.97
2017-09-25T08:28:02.560Z,3.50
2017-09-25T08:30:05.013Z,3.40
2017-09-25T08:32:07.504Z,4.17
2017-09-25T08:34:09.999Z,4.03
2017-09-25T08:36:12.449Z,3.50
2017-09-25T08:38:14.980Z,3.90
2017-09-25T08:40:17.587Z,3.07
2017-09-25T08:42:20.160Z,4.00
2017-09-25T08:44:22.775Z,4.10
2017-09-25T08:46:25.239Z,3.83
2017-09-25T08:48:27.680Z,3.50
2017-09-25T08:50:30.130Z,3.17
2017-09-25T08:52:32.615Z,3.67
2017-09-25T08:54:35.181Z,4.00
2017-09-25T08:56:37.665Z,3.60
2017-09-25T08:58:40.149Z,3.90
2017-09-25T09:00:42.598Z,4.27
2017-09-25T09:02:45.065Z,4.70
2017-09-25T09:04:47.643Z,3.60
2017-09-25T09:06:50.099Z,3.90
2017-09-25T09:08:52.622Z,3.77
2017-09-25T09:10:55.151Z,4.00
2017-09-25T09:12:57.724Z,4.93
2017-09-25T09:15:00.161Z,4.73
2017-09-25T09:17:02.763Z,4.37
2017-09-25T09:19:05.195Z,3.90
2017-09-25T09:21:07.718Z,4.43
2017-09-25T09:23:10.241Z,3.80
2017-09-25T09:25:12.704Z,4.30
2017-09-25T09:27:15.221Z,4.00
2017-09-25T09:29:17.713Z,3.50
2017-09-25T09:31:20.178Z,3.90
2017-09-25T09:33:22.708Z,4.30
2017-09-25T09:35:25.180Z,4.40
2017-09-25T09:37:27.658Z,4.17
2017-09-25T09:39:30.144Z,3.60
2017-09-25T09:41:32.725Z,3.60
2017-09-25T09:43:36.210Z,3.90
2017-09-25T09:45:38.698Z,4.40
2017-09-25T09:47:41.189Z,4.10
2017-09-25T09:49:43.628Z,3.63
2017-09-25T09:51:46.106Z,3.90
2017-09-25T09:53:48.574Z,4.33
2017-09-25T09:55:52.953Z,4.20
2017-09-25T09:57:55.474Z,3.40
2017-09-25T09:59:57.942Z,3.77
2017-09-25T10:02:00.490Z,3.93
2017-09-25T10:04:04.096Z,4.10
2017-09-25T10:06:06.644Z,4.33
2017-09-25T10:08:09.121Z,4.13
2017-09-25T10:10:11.560Z,3.90
2017-09-25T10:12:14.022Z,4.30
2017-09-25T10:14:16.482Z,4.40
2017-09-25T10:16:19.010Z,4.73
2017-09-25T10:18:21.497Z,4.43
2017-09-25T10:20:24.914Z,3.50
2017-09-25T10:22:27.356Z,4.10
2017-09-25T10:24:29.812Z,4.50
2017-09-25T10:26:32.284Z,4.90
2017-09-25T10:28:34.735Z,4.67
2017-09-25T10:30:37.188Z,4.27
2017-09-25T10:32:39.627Z,4.50
2017-09-25T10:34:42.116Z,3.97
2017-09-25T10:36:44.596Z,4.50
2017-09-25T10:38:48.065Z,3.83
2017-09-25T10:40:50.497Z,4.03
2017-09-25T10:42:53.081Z,4.20
2017-09-25T10:44:55.555Z,4.20
2017-09-25T10:46:58.199Z,3.87
2017-09-25T10:49:00.788Z,5.50
2017-09-25T10:51:03.225Z,4.40
2017-09-25T10:53:05.699Z,3.50
2017-09-25T10:55:08.173Z,3.93
2017-09-25T10:57:10.684Z,4.00
2017-09-25T10:59:13.124Z,3.60
2017-09-25T11:01:15.585Z,3.90
2017-09-25T11:03:18.092Z,3.70
2017-09-25T11:05:20.653Z,3.70
2017-09-25T11:07:23.329Z,4.73
2017-09-25T11:09:25.768Z,6.63
2017-09-25T11:11:28.325Z,3.83
2017-09-25T11:13:30.941Z,3.93
2017-09-25T11:15:33.472Z,3.70
2017-09-25T11:17:35.984Z,3.40
2017-09-25T11:19:38.454Z,3.50
2017-09-25T11:21:40.989Z,3.80
2017-09-25T11:23:43.496Z,3.80
2017-09-25T11:25:45.972Z,4.10
2017-09-25T11:27:48.436Z,4.00
2017-09-25T11:29:50.993Z,4.50
2017-09-25T11:31:53.584Z,4.57
2017-09-25T11:33:56.087Z,4.60
2017-09-25T11:35:59.519Z,4.50
2017-09-25T11:38:02.010Z,4.20
2017-09-25T11:40:04.472Z,4.00
2017-09-25T11:42:06.954Z,4.30
2017-09-25T11:44:09.427Z,4.37
2017-09-25T11:46:11.999Z,4.23
2017-09-25T11:48:14.613Z,5.30
2017-09-25T11:50:17.145Z,4.50
2017-09-25T11:52:19.656Z,4.43
2017-09-25T11:54:22.093Z,4.90
2017-09-25T11:56:24.557Z,5.13
2017-09-25T11:58:26.996Z,5.60
2017-09-25T12:00:29.429Z,4.60
2017-09-25T12:02:32.038Z,4.13
2017-09-25T12:04:34.524Z,5.67
2017-09-25T12:06:37.001Z,5.53
2017-09-25T12:08:39.555Z,4.80
2017-09-25T12:10:42.156Z,4.33
2017-09-25T12:12:44.597Z,6.27
2017-09-25T12:14:47.101Z,4.90
2017-09-25T12:16:49.683Z,5.63
2017-09-25T12:18:52.144Z,4.43
2017-09-25T12:20:54.713Z,4.80
2017-09-25T12:22:57.152Z,5.07
2017-09-25T12:24:59.588Z,5.00
2017-09-25T12:27:02.120Z,4.90
2017-09-25T12:29:04.637Z,4.50
2017-09-25T12:31:07.089Z,4.40
2017-09-25T12:33:09.550Z,4.33
2017-09-25T12:35:12.016Z,4.90
2017-09-25T12:37:14.476Z,4.37
2017-09-25T12:39:16.974Z,4.53
2017-09-25T12:41:19.413Z,5.17
2017-09-25T12:43:21.988Z,4.77
2017-09-25T12:45:27.893Z,5.00
2017-09-25T12:47:31.217Z,4.40
2017-09-25T12:49:33.701Z,4.43
2017-09-25T12:51:36.173Z,4.80
2017-09-25T12:53:38.619Z,4.40
2017-09-25T12:55:42.037Z,3.73
2017-09-25T12:57:44.529Z,3.63
2017-09-25T12:59:46.981Z,4.73
2017-09-25T13:01:49.425Z,4.73
2017-09-25T13:03:52.010Z,4.20
2017-09-25T13:05:54.768Z,3.90
2017-09-25T13:07:57.234Z,4.90
2017-09-25T13:09:59.774Z,4.50
2017-09-25T13:12:02.320Z,4.27
2017-09-25T13:14:04.821Z,4.60
2017-09-25T13:16:07.344Z,3.87
2017-09-25T13:18:09.813Z,3.97
2017-09-25T13:20:12.290Z,4.90
2017-09-25T13:22:14.763Z,4.77
2017-09-25T13:24:17.223Z,4.20
2017-09-25T13:26:19.757Z,4.90
2017-09-25T13:28:22.295Z,4.50
2017-09-25T13:30:24.745Z,4.10
2017-09-25T13:32:27.305Z,4.27
2017-09-25T13:34:29.787Z,4.43
2017-09-25T13:36:32.287Z,4.23
2017-09-25T13:38:35.689Z,4.40
2017-09-25T13:40:38.185Z,4.10
2017-09-25T13:42:40.622Z,4.17
2017-09-25T13:44:43.104Z,3.80
2017-09-25T13:46:45.662Z,4.27
2017-09-25T13:48:48.112Z,4.60
2017-09-25T13:50:50.697Z,5.27
2017-09-25T13:52:53.203Z,4.00
2017-09-25T13:54:55.683Z,4.50
2017-09-25T13:56:58.143Z,4.60
2017-09-25T14:03:16.143Z,4.03
2017-09-25T14:05:18.640Z,3.70
2017-09-25T14:07:21.077Z,3.93
2017-09-25T14:09:23.545Z,3.73
2017-09-25T14:11:26.043Z,3.67
2017-09-25T14:13:28.509Z,4.33
2017-09-25T14:15:30.997Z,3.97
2017-09-25T14:17:33.531Z,3.87
2017-09-25T14:19:35.968Z,4.57
2017-09-25T14:21:38.413Z,4.23
2017-09-25T14:23:40.924Z,3.60
2017-09-25T14:25:43.401Z,4.40
2017-09-25T14:27:45.844Z,4.07
2017-09-25T14:29:48.310Z,3.90
2017-09-25T14:31:50.846Z,4.60
2017-09-25T14:33:53.292Z,4.23
2017-09-25T14:35:55.758Z,4.30
2017-09-25T14:37:58.207Z,4.00
2017-09-25T14:40:00.666Z,4.37
2017-09-25T14:42:03.138Z,3.73
2017-09-25T14:44:05.644Z,3.70
2017-09-25T14:46:08.144Z,3.23
2017-09-25T14:48:10.611Z,3.97
2017-09-25T14:50:13.075Z,3.53
2017-09-25T14:52:15.737Z,3.13
2017-09-25T14:54:18.306Z,3.70
2017-09-25T14:56:20.776Z,3.80
2017-09-25T14:58:23.233Z,4.17
2017-09-25T15:00:25.722Z,4.23
2017-09-25T15:02:28.192Z,3.57
2017-09-25T15:04:30.652Z,4.03
2017-09-25T15:06:33.204Z,4.30
2017-09-25T15:08:35.690Z,4.87
2017-09-25T15:10:38.147Z,3.20
2017-09-25T15:12:41.604Z,3.83
2017-09-25T15:14:44.082Z,3.53
2017-09-25T15:16:46.540Z,3.70
2017-09-25T15:18:49.071Z,3.97
2017-09-25T15:20:51.596Z,4.13
2017-09-25T15:22:54.983Z,3.70
2017-09-25T15:24:57.453Z,3.90
2017-09-25T15:27:00.999Z,3.17
2017-09-25T15:29:07.406Z,4.87
2017-09-25T15:31:09.905Z,4.03
2017-09-25T15:33:12.350Z,3.60
2017-09-25T15:35:15.881Z,4.20
2017-09-25T15:37:18.366Z,3.70
2017-09-25T15:39:20.940Z,3.70
2017-09-25T15:41:23.371Z,3.53
2017-09-25T15:43:25.892Z,3.13
2017-09-25T15:45:28.341Z,3.50
2017-09-25T15:47:30.785Z,3.50
2017-09-25T15:49:35.238Z,3.50
2017-09-25T15:51:37.798Z,4.80
2017-09-25T15:53:40.588Z,3.40
2017-09-25T15:55:43.043Z,3.80
2017-09-25T15:57:45.479Z,3.20
2017-09-25T15:59:47.939Z,4.07
2017-09-25T16:01:50.405Z,3.60
2017-09-25T16:03:52.937Z,4.40
2017-09-25T16:05:55.385Z,3.30
2017-09-25T16:07:57.849Z,3.77
2017-09-25T16:10:00.433Z,5.77
2017-09-25T16:12:02.932Z,3.63
2017-09-25T16:14:05.408Z,3.40
2017-09-25T16:16:07.880Z,4.00
2017-09-25T16:18:10.377Z,3.73
2017-09-25T16:20:12.985Z,3.73
2017-09-25T16:22:15.448Z,3.80
2017-09-25T16:24:17.899Z,3.40
2017-09-25T16:26:20.417Z,3.83
2017-09-25T16:28:22.984Z,3.47
2017-09-25T16:30:25.458Z,3.47
2017-09-25T16:32:27.912Z,3.50
2017-09-25T16:34:30.501Z,3.70
2017-09-25T16:36:32.942Z,3.00
2017-09-25T16:38:35.496Z,4.07
2017-09-25T16:40:37.988Z,3.03
2017-09-25T16:42:40.446Z,3.60
2017-09-25T16:44:42.900Z,3.60
2017-09-25T16:46:45.356Z,4.03
2017-09-25T16:48:47.802Z,3.07
2017-09-25T16:50:50.284Z,4.40
2017-09-25T16:52:52.771Z,4.07
2017-09-25T16:54:55.306Z,3.03
2017-09-25T16:56:57.781Z,2.80
2017-09-25T16:59:00.287Z,3.73
2017-09-25T17:01:02.725Z,3.63
2017-09-25T17:03:05.185Z,3.63
2017-09-25T17:05:07.762Z,3.40
2017-09-25T17:07:11.095Z,3.13
2017-09-25T17:09:13.604Z,3.40
2017-09-25T17:11:16.137Z,3.57
2017-09-25T17:13:18.606Z,3.10
2017-09-25T17:15:21.114Z,3.23
2017-09-25T17:17:23.668Z,3.10
2017-09-25T17:19:26.105Z,3.70
2017-09-25T17:21:28.572Z,3.83
2017-09-25T17:23:31.122Z,3.67
2017-09-25T17:25:33.568Z,3.23
2017-09-25T17:27:36.060Z,3.80
2017-09-25T17:29:38.529Z,3.37
2017-09-25T17:31:41.003Z,3.90
2017-09-25T17:33:43.465Z,3.30
2017-09-25T17:35:45.981Z,3.50
2017-09-25T17:37:48.424Z,3.20
2017-09-25T17:39:50.905Z,3.27
2017-09-25T17:41:53.384Z,3.80
2017-09-25T17:43:55.820Z,3.00
2017-09-25T17:45:58.328Z,3.20
2017-09-25T17:48:00.813Z,3.23
2017-09-25T17:50:03.334Z,2.50
2017-09-25T17:52:05.801Z,3.50
2017-09-25T17:54:08.232Z,3.23
2017-09-25T17:56:10.940Z,3.50
2017-09-25T17:58:13.401Z,4.03
2017-09-25T18:00:16.036Z,2.80
2017-09-25T18:02:18.572Z,3.07
2017-09-25T18:04:21.138Z,2.90
2017-09-25T18:06:23.616Z,3.03
2017-09-25T18:08:26.067Z,3.37
2017-09-25T18:10:28.649Z,2.80
2017-09-25T18:12:31.223Z,3.30
2017-09-25T18:14:33.756Z,2.90
2017-09-25T18:16:36.311Z,3.33
2017-09-25T18:18:38.781Z,3.40
2017-09-25T18:20:41.234Z,2.87
2017-09-25T18:22:43.779Z,3.40
2017-09-25T18:24:46.307Z,3.37
2017-09-25T18:26:48.791Z,2.77
2017-09-25T18:28:51.338Z,2.87
2017-09-25T18:30:53.864Z,3.00
2017-09-25T18:32:56.334Z,3.00
2017-09-25T18:34:58.788Z,2.60
2017-09-25T18:37:01.234Z,2.97
2017-09-25T18:39:03.794Z,3.20
2017-09-25T18:41:06.368Z,3.20
2017-09-25T18:43:09.958Z,3.70
2017-09-25T18:45:12.897Z,3.00
2017-09-25T18:47:15.471Z,3.50
2017-09-25T18:49:17.904Z,3.60
2017-09-25T18:51:21.051Z,3.43
2017-09-25T18:53:23.597Z,3.43
2017-09-25T18:55:26.069Z,2.67
2017-09-25T18:57:28.970Z,2.90
2017-09-25T18:59:31.435Z,3.00
2017-09-25T19:01:35.466Z,3.10
2017-09-25T19:03:38.943Z,2.70
2017-09-25T19:05:41.454Z,3.07
2017-09-25T19:07:44.065Z,3.07
2017-09-25T19:09:46.637Z,3.30
2017-09-25T19:11:49.213Z,2.93
2017-09-25T19:13:51.683Z,2.97
2017-09-25T19:15:54.256Z,3.40
2017-09-25T19:17:56.763Z,2.80
2017-09-25T19:19:59.228Z,3.20
2017-09-25T19:22:01.688Z,2.90
2017-09-25T19:24:04.205Z,2.80
2017-09-25T19:26:06.659Z,3.07
2017-09-25T19:28:09.166Z,3.17
2017-09-25T19:30:11.698Z,3.27
2017-09-25T19:32:14.154Z,2.80
2017-09-25T19:34:16.604Z,2.90
2017-09-25T19:36:19.084Z,2.70
2017-09-25T19:38:21.580Z,2.60
2017-09-25T19:40:24.015Z,2.70
2017-09-25T19:42:26.490Z,2.70
2017-09-25T19:44:28.936Z,3.20
2017-09-25T19:46:31.402Z,3.13
2017-09-25T19:51:07.518Z,3.10
2017-09-25T19:53:09.943Z,3.30
2017-09-25T19:55:13.222Z,3.23
2017-09-25T19:57:15.702Z,2.93
2017-09-25T19:59:18.301Z,2.87
2017-09-25T20:01:20.797Z,2.70
2017-09-25T20:03:23.250Z,2.97
2017-09-25T20:05:25.688Z,2.70
2017-09-25T20:07:28.233Z,2.90
2017-09-25T20:09:30.700Z,2.40
2017-09-25T20:11:33.199Z,2.93
2017-09-25T20:13:35.695Z,3.10
2017-09-25T20:15:43.718Z,2.40
2017-09-25T20:17:50.683Z,2.87
2017-09-25T20:19:53.190Z,3.00
2017-09-25T20:21:55.627Z,3.40
2017-09-25T20:23:58.083Z,3.00
2017-09-25T20:26:00.634Z,2.50
2017-09-25T20:28:03.076Z,2.93
2017-09-25T20:30:05.544Z,2.80
2017-09-25T20:32:08.009Z,2.70
2017-09-25T20:34:10.498Z,2.40
2017-09-25T20:36:12.928Z,2.90
2017-09-25T20:38:15.450Z,3.20
2017-09-25T20:40:18.023Z,2.50
2017-09-25T20:42:36.328Z,3.10
2017-09-25T20:44:38.820Z,3.30
2017-09-25T20:46:41.260Z,3.00
2017-09-25T20:48:43.712Z,2.70
2017-09-25T20:50:46.172Z,3.07
2017-09-25T20:52:48.701Z,2.77
2017-09-25T20:54:51.156Z,2.63
2017-09-25T20:56:53.615Z,3.00
2017-09-25T20:58:56.104Z,2.87
2017-09-25T21:00:58.699Z,2.60
2017-09-25T21:03:01.148Z,3.33
2017-09-25T21:05:03.639Z,2.97
2017-09-25T21:07:06.068Z,2.90
2017-09-25T21:09:08.548Z,2.53
2017-09-25T21:11:11.151Z,3.07
2017-09-25T21:13:13.605Z,2.70
2017-09-25T21:15:16.105Z,2.67
2017-09-25T21:17:18.540Z,3.17
2017-09-25T21:19:20.979Z,2.70
2017-09-25T21:21:23.464Z,2.73
2017-09-25T21:23:25.912Z,2.90
2017-09-25T21:25:28.352Z,2.57
2017-09-25T21:27:34.310Z,3.07
2017-09-25T21:29:36.745Z,3.10
2017-09-25T21:31:39.197Z,2.97
2017-09-25T21:33:41.671Z,3.47
2017-09-25T21:35:44.105Z,2.60
2017-09-25T21:37:46.666Z,3.10
2017-09-25T21:39:49.144Z,3.57
2017-09-25T21:41:51.584Z,2.60
2017-09-25T21:43:54.226Z,2.90
2017-09-25T21:45:56.730Z,2.83
2017-09-25T21:47:59.177Z,3.00
2017-09-25T21:50:01.621Z,3.23
2017-09-25T21:52:04.118Z,3.07
2017-09-25T21:54:06.559Z,2.60
2017-09-25T21:56:08.992Z,2.60
2017-09-25T21:58:11.452Z,3.00
2017-09-25T22:00:14.021Z,3.33
2017-09-25T22:02:16.590Z,2.80
2017-09-25T22:04:19.072Z,3.13
2017-09-25T22:06:21.525Z,2.80
2017-09-25T22:08:24.083Z,2.60
2017-09-25T22:10:26.597Z,3.70
2017-09-25T22:12:29.080Z,2.80
2017-09-25T22:14:31.681Z,2.50
2017-09-25T22:16:34.141Z,2.90
2017-09-25T22:18:36.661Z,3.13
2017-09-25T22:20:39.129Z,2.77
2017-09-25T22:22:41.767Z,3.70
2017-09-25T22:24:44.238Z,2.70
2017-09-25T22:26:46.713Z,2.93
2017-09-25T22:28:49.215Z,2.80
2017-09-25T22:30:51.684Z,3.03
2017-09-25T22:32:54.171Z,2.53
2017-09-25T22:34:56.635Z,2.80
2017-09-25T22:36:59.117Z,2.80
2017-09-25T22:39:01.580Z,2.67
2017-09-25T22:41:04.105Z,3.30
2017-09-25T22:43:07.941Z,2.87
2017-09-25T22:45:10.392Z,2.73
2017-09-25T22:47:12.866Z,3.30
2017-09-25T22:49:15.301Z,2.90
2017-09-25T22:51:17.738Z,2.80
2017-09-25T22:53:20.329Z,3.30
2017-09-25T22:55:22.867Z,2.83
2017-09-25T22:57:25.313Z,2.77
2017-09-25T22:59:27.776Z,3.07
2017-09-25T23:01:30.245Z,2.90
2017-09-25T23:03:32.776Z,2.33
2017-09-25T23:05:51.092Z,2.70
2017-09-25T23:07:53.525Z,2.80
2017-09-25T23:10:05.009Z,3.00
2017-09-25T23:12:07.463Z,2.60
2017-09-25T23:14:09.908Z,2.50
2017-09-25T23:16:12.552Z,3.17
2017-09-25T23:18:15.049Z,2.73
2017-09-25T23:20:17.486Z,2.97
2017-09-25T23:22:19.959Z,2.87
2017-09-25T23:24:22.539Z,3.10
2017-09-25T23:26:25.008Z,2.97
2017-09-25T23:28:27.524Z,2.83
2017-09-25T23:30:33.532Z,2.97
2017-09-25T23:32:36.105Z,2.73
2017-09-25T23:34:38.613Z,2.97
2017-09-25T23:36:41.097Z,2.90
2017-09-25T23:38:43.537Z,2.93
2017-09-25T23:40:45.985Z,3.17
2017-09-25T23:42:48.442Z,2.77
2017-09-25T23:44:50.964Z,2.40
2017-09-25T23:46:53.398Z,2.57
2017-09-25T23:48:55.931Z,3.07
2017-09-25T23:50:58.377Z,3.67
2017-09-25T23:53:01.016Z,3.07
2017-09-25T23:55:03.502Z,2.83
2017-09-25T23:57:05.964Z,2.90
2017-09-25T23:59:08.533Z,2.77
